Aurelia, North Dakota
Current Conditions -  °F | °C
As of 2:15 PM on Friday 31 Oct 2014 (Local Time) from K08D Reporting Station
Clear Clear  
Wind Chill: 26°   Ceiling: Unl
Heat Index: 37°   Visibility: 10mi
Dew Point: 23°   Wind: 24mph
Humidity: 56%   Direction: 160°SSE
Pressure: 30.17"   Gusts: 36mph
Location:  48.4598°N, 101.907°W
Report Text: K08D 311915Z AUTO 16021G31KT 10SM CLR 03/M05 A3017 RMK AO2
Loading
Personal Weather Stations






























Interactive Weather Map
Tropical Storm Tracking
New forecast layout! Learn more

10-Day Weather Forecast

Advertisements
Track Severe Weather on mobile